Flight Track Log - Related Links

Times and Time Zones

All times are in EDT time to prevent confusion due to time zone crossing. See the DAL1092 flight status page for this flight to view local times or setup timezone preferences in your user account.

Time Position Orientation Groundspeed Altitude Reporting Facility
EDT Latitude Longitude Course Direction KTS MPH feet Rate Location/Type
Thu 10:03:52 AM 33.6478 -84.3708 11° North 466 536 2,500  Level Atlanta Center
Thu 10:04:56 AM 33.6667 -84.2833 75° East 277 319 4,400 2,419 Climbing Atlanta TRACON
Thu 10:05:56 AM 33.7000 -84.1833 68° East 287 330 7,500 2,619 Climbing Atlanta TRACON
Thu 10:07:00 AM 34.0534 -84.2667 North  Level FlightAware Approximate
Thu 10:07:02 AM 33.7833 -84.1833 360° North 301 346 9,900  Level Atlanta TRACON
Thu 10:07:56 AM 33.8667 -84.2000 351° North 373 429 10,000 842 Climbing Atlanta TRACON
Thu 10:08:00 AM 34.1763 -84.2667 North  Level FlightAware Approximate
Thu 10:08:56 AM 33.9667 -84.2667 331° Northwest 424 488 11,500  Level Atlanta TRACON
Thu 10:09:00 AM 34.2988 -84.2630 11° North  Level FlightAware Approximate
Thu 10:10:52 AM 34.1803 -84.2797 357° North 440 506 15,300  Level Atlanta Center
Thu 10:11:52 AM 34.3053 -84.2778 North 440 506 17,300 1,300 Climbing Atlanta Center
Thu 10:12:52 AM 34.4328 -84.2503 10° North 435 501 17,900 450 Climbing Atlanta Center
Thu 10:13:52 AM 34.5558 -84.2203 11° North 435 501 18,200 800 Climbing Atlanta Center
Thu 10:14:52 AM 34.6500 -84.1953 12° North 435 501 19,500 1,650 Climbing Atlanta Center
Thu 10:15:52 AM 34.7833 -84.1703 North 430 495 21,500 1,450 Climbing Atlanta Center
Thu 10:16:52 AM 34.9067 -84.1375 12° North 430 495 22,400 950 Climbing Atlanta Center
Thu 10:17:52 AM 35.0339 -84.1097 10° North 447 514 23,400 900 Climbing Atlanta Center
Thu 10:18:52 AM 35.1633 -84.0769 12° North 458 527 24,200 750 Climbing Atlanta Center
Thu 10:19:52 AM 35.2928 -84.0464 11° North 469 540 24,900 900 Climbing Atlanta Center
Thu 10:20:52 AM 35.4261 -84.0133 11° North 474 545 26,000 950 Climbing Atlanta Center
Thu 10:21:52 AM 35.5617 -83.9800 11° North 480 552 26,800 750 Climbing Atlanta Center
Thu 10:22:52 AM 35.6869 -83.9236 20° North 485 558 27,500 600 Climbing Atlanta Center
Thu 10:23:52 AM 35.7994 -83.8339 33° Northeast 480 552 28,000 500 Climbing Atlanta Center
Thu 10:24:52 AM 35.9078 -83.7464 33° Northeast 466 536 28,500 900 Climbing Atlanta Center
Thu 10:25:52 AM 36.0181 -83.6614 32° Northeast 466 536 29,800 1,250 Climbing Atlanta Center
Thu 10:26:52 AM 36.1283 -83.5733 33° Northeast 466 536 31,000 735 Climbing Atlanta Center
Thu 10:27:30 AM 36.2131 -83.5108 31° Northeast 468 539 31,000 848 Level Indianapolis Center
Thu 10:28:31 AM 36.3214 -83.4250 33° Northeast 479 551 32,400 976 Climbing Indianapolis Center
Thu 10:29:33 AM 36.4303 -83.3386 33° Northeast 468 539 33,000 290 Climbing Indianapolis Center
Thu 10:30:35 AM 36.5381 -83.2522 33° Northeast 462 532 33,000  Level Indianapolis Center
Thu 10:31:37 AM 36.6453 -83.1592 35° Northeast 464 534 33,000  Level Indianapolis Center
Thu 10:32:38 AM 36.7664 -83.0531 35° Northeast 452 520 33,000  Level Indianapolis Center
Thu 10:33:40 AM 36.8650 -82.9736 33° Northeast 445 512 33,000 242 Level Indianapolis Center
Thu 10:34:42 AM 36.9831 -82.8842 31° Northeast 449 517 33,500 484 Climbing Indianapolis Center
Thu 10:35:44 AM 37.0900 -82.7931 34° Northeast 453 521 34,000 585 Climbing Indianapolis Center
Thu 10:36:45 AM 37.1975 -82.7078 32° Northeast 454 522 34,700 488 Climbing Indianapolis Center
Thu 10:37:47 AM 37.3061 -82.6219 32° Northeast 458 527 35,000 145 Climbing Indianapolis Center
Thu 10:38:49 AM 37.4136 -82.5347 33° Northeast 459 528 35,000  Level Indianapolis Center
Thu 10:39:50 AM 37.5208 -82.4489 32° Northeast 455 524 35,000  Level Indianapolis Center
Thu 10:40:52 AM 37.6267 -82.3608 33° Northeast 455 524 35,000  Level Indianapolis Center
Thu 10:41:54 AM 37.7308 -82.2672 35° Northeast 458 527 35,000  Level Indianapolis Center
Thu 10:42:55 AM 37.8411 -82.1672 36° Northeast 458 527 35,000  Level Indianapolis Center
Thu 10:43:57 AM 37.9453 -82.0697 36° Northeast 464 534 35,000  Level Indianapolis Center
Thu 10:44:59 AM 38.0489 -81.9753 36° Northeast 460 529 35,000  Level Indianapolis Center
Thu 10:46:00 AM 38.1517 -81.8800 36° Northeast 458 527 35,000  Level Indianapolis Center
Thu 10:47:02 AM 38.2775 -81.7653 36° Northeast 463 533 35,000  Level Indianapolis Center
Thu 10:48:04 AM 38.3817 -81.6686 36° Northeast 465 535 35,000  Level Indianapolis Center
Thu 10:49:05 AM 38.4831 -81.5744 36° Northeast 454 522 35,000  Level Indianapolis Center
Thu 10:50:07 AM 38.5817 -81.4806 37° Northeast 450 518 35,000  Level Indianapolis Center
Thu 10:51:09 AM 38.6939 -81.3794 35° Northeast 445 512 35,000  Level Indianapolis Center
Thu 10:52:10 AM 38.7983 -81.2800 37° Northeast 447 514 35,000  Level Indianapolis Center
Thu 10:53:12 AM 38.8978 -81.1878 36° Northeast 444 511 35,000  Level Indianapolis Center
Thu 10:54:14 AM 38.9961 -81.0942 36° Northeast 443 510 35,000  Level Indianapolis Center
Thu 10:55:15 AM 39.0950 -81.0003 36° Northeast 442 509 35,000  Level Indianapolis Center
Thu 10:56:17 AM 39.1953 -80.9056 36° Northeast 447 514 35,000  Level Indianapolis Center
Thu 10:57:19 AM 39.2956 -80.8089 37° Northeast 449 517 35,000  Level Indianapolis Center
Thu 10:58:20 AM 39.3972 -80.7125 36° Northeast 452 520 35,000 -244 Level Indianapolis Center
Thu 10:59:22 AM 39.5206 -80.5939 37° Northeast 461 531 34,500 -732 Descending Indianapolis Center
Thu 11:00:23 AM 39.6278 -80.4906 37° Northeast 475 547 33,500 -732 Descending Indianapolis Center
Thu 11:01:25 AM 39.7361 -80.3872 36° Northeast 482 555 33,000 -242 Descending Indianapolis Center
Thu 11:02:27 AM 39.8433 -80.2819 37° Northeast 484 557 33,000  Level Indianapolis Center
Thu 11:03:28 AM 39.9519 -80.1772 36° Northeast 483 556 33,000  Level Indianapolis Center
Thu 11:04:30 AM 40.0603 -80.0700 37° Northeast 487 560 33,000  Level Indianapolis Center
Thu 11:05:31 AM 40.1678 -79.9664 36° Northeast 483 556 33,000  Level Indianapolis Center
Thu 11:06:39 AM 40.2961 -79.8428 36° Northeast 484 557 33,000  Level Cleveland Center
Thu 11:07:39 AM 40.4039 -79.7353 37° Northeast 484 557 33,000  Level Cleveland Center
Thu 11:08:39 AM 40.5092 -79.6272 38° Northeast 484 557 33,000  Level Cleveland Center
Thu 11:09:39 AM 40.6189 -79.5192 37° Northeast 484 557 33,000  Level Cleveland Center
Thu 11:10:39 AM 40.7261 -79.4106 37° Northeast 484 557 33,000  Level Cleveland Center
Thu 11:11:39 AM 40.8333 -79.3042 37° Northeast 484 557 33,000  Level Cleveland Center
Thu 11:12:39 AM 40.9406 -79.1950 38° Northeast 484 557 33,000  Level Cleveland Center
Thu 11:13:39 AM 41.0475 -79.0853 38° Northeast 484 557 33,000  Level Cleveland Center
Thu 11:14:39 AM 41.1544 -78.9781 37° Northeast 484 557 33,000  Level Cleveland Center
Thu 11:15:39 AM 41.2656 -78.8650 37° Northeast 484 557 33,000  Level Cleveland Center
Thu 11:16:39 AM 41.3722 -78.7542 38° Northeast 484 557 33,000  Level Cleveland Center
Thu 11:17:39 AM 41.4808 -78.6431 37° Northeast 484 557 33,000 -50 Level Cleveland Center
Thu 11:18:39 AM 41.5872 -78.5289 39° Northeast 484 557 32,900 -500 Descending Cleveland Center
Thu 11:19:39 AM 41.6956 -78.4167 38° Northeast 484 557 32,000 -900 Descending Cleveland Center
Thu 11:20:39 AM 41.8039 -78.3017 38° Northeast 484 557 31,100 -950 Descending Cleveland Center
Thu 11:21:39 AM 41.9142 -78.1889 37° Northeast 484 557 30,100 -750 Descending Cleveland Center
Thu 11:22:39 AM 42.0222 -78.0758 38° Northeast 489 563 29,600 -750 Descending Cleveland Center
Thu 11:23:39 AM 42.1281 -77.9514 41° Northeast 489 563 28,600 -950 Descending Cleveland Center
Thu 11:24:39 AM 42.2247 -77.8156 46° Northeast 489 563 27,700 -950 Descending Cleveland Center
Thu 11:25:39 AM 42.3256 -77.6792 45° Northeast 500 575 26,700 -1,000 Descending Cleveland Center
Thu 11:26:39 AM 42.4364 -77.5306 45° Northeast 500 575 25,700 -1,150 Descending Cleveland Center
Thu 11:27:39 AM 42.5269 -77.4022 46° Northeast 505 581 24,400 -2,400 Descending Cleveland Center
Thu 11:28:39 AM 42.6231 -77.2647 46° Northeast 505 581 20,900 -3,000 Descending Cleveland Center
Thu 11:29:39 AM 42.7153 -77.1353 46° Northeast 489 563 18,400 -2,200 Descending Cleveland Center
Thu 11:30:39 AM 42.8050 -77.0086 46° Northeast 472 543 16,500 -2,170 Descending Cleveland Center
Thu 11:31:13 AM 42.8453 -76.9292 55° Northeast 452 520 15,000 -2,318 Descending Boston Center
Thu 11:32:07 AM 42.9069 -76.7947 58° Northeast 445 512 13,100 -1,722 Descending Boston Center
Thu 11:33:08 AM 42.9642 -76.6625 59° Northeast 402 463 11,700 -1,475 Descending Boston Center
Thu 11:34:09 AM 43.0164 -76.5411 59° Northeast 319 367 10,100 -1,869 Descending Boston Center
Thu 11:35:10 AM 43.0617 -76.4419 58° Northeast 301 346 7,900 -1,587 Descending Boston Center
Thu 11:36:10 AM 43.0983 -76.3503 61° Northeast 267 307 6,900 -1,200 Descending Boston Center
Thu 11:37:10 AM 43.1361 -76.2817 53° Northeast 206 237 5,500 -1,983 Descending Boston Center
Thu 11:38:11 AM 43.1292 -76.2328 101° East 171 197 2,900 -2,121 Descending Boston Center
Thu 11:39:06 AM 43.1056 -76.1944 130° Southeast 156 180 1,400 -1,636 Descending Boston Center

Login

Don't have an account? Register now (free) for customized features, flight alerts, and more!